sensor_id;sensor_type;location;lat;lon;timestamp;P1;durP1;ratioP1;P2;durP2;ratioP2
19107;SDS011;9686;48.832;9.126;2023-05-14T00:01:58;7.33;;;5.97;;
19107;SDS011;9686;48.832;9.126;2023-05-14T00:04:23;7.17;;;6.20;;
19107;SDS011;9686;48.832;9.126;2023-05-14T00:06:49;7.87;;;6.47;;
19107;SDS011;9686;48.832;9.126;2023-05-14T00:09:14;6.97;;;6.27;;
19107;SDS011;9686;48.832;9.126;2023-05-14T00:11:39;8.50;;;6.20;;
19107;SDS011;9686;48.832;9.126;2023-05-14T00:14:04;6.43;;;5.83;;
19107;SDS011;9686;48.832;9.126;2023-05-14T00:16:30;7.10;;;6.40;;
19107;SDS011;9686;48.832;9.126;2023-05-14T00:18:55;7.57;;;6.57;;
19107;SDS011;9686;48.832;9.126;2023-05-14T00:21:20;7.00;;;6.10;;
19107;SDS011;9686;48.832;9.126;2023-05-14T00:23:45;6.97;;;5.70;;
19107;SDS011;9686;48.832;9.126;2023-05-14T00:26:11;6.43;;;5.83;;
19107;SDS011;9686;48.832;9.126;2023-05-14T00:28:36;8.07;;;6.30;;
19107;SDS011;9686;48.832;9.126;2023-05-14T00:31:01;6.57;;;5.97;;
19107;SDS011;9686;48.832;9.126;2023-05-14T00:33:27;7.33;;;6.60;;
19107;SDS011;9686;48.832;9.126;2023-05-14T00:35:52;7.43;;;6.57;;
19107;SDS011;9686;48.832;9.126;2023-05-14T00:38:17;9.93;;;6.17;;
19107;SDS011;9686;48.832;9.126;2023-05-14T00:40:43;7.70;;;6.80;;
19107;SDS011;9686;48.832;9.126;2023-05-14T00:43:15;7.03;;;6.33;;
19107;SDS011;9686;48.832;9.126;2023-05-14T00:45:40;6.67;;;6.07;;
19107;SDS011;9686;48.832;9.126;2023-05-14T00:48:06;8.00;;;7.20;;
19107;SDS011;9686;48.832;9.126;2023-05-14T00:50:31;7.10;;;6.40;;
19107;SDS011;9686;48.832;9.126;2023-05-14T00:52:58;7.17;;;6.50;;
19107;SDS011;9686;48.832;9.126;2023-05-14T00:55:24;7.17;;;6.47;;
19107;SDS011;9686;48.832;9.126;2023-05-14T00:57:50;7.73;;;5.93;;
19107;SDS011;9686;48.832;9.126;2023-05-14T01:00:17;8.27;;;6.50;;
19107;SDS011;9686;48.832;9.126;2023-05-14T01:02:42;7.30;;;6.60;;
19107;SDS011;9686;48.832;9.126;2023-05-14T01:05:08;8.03;;;6.93;;
19107;SDS011;9686;48.832;9.126;2023-05-14T01:13:18;6.90;;;6.20;;
19107;SDS011;9686;48.832;9.126;2023-05-14T01:15:52;6.60;;;5.90;;
19107;SDS011;9686;48.832;9.126;2023-05-14T01:18:21;7.20;;;6.03;;
19107;SDS011;9686;48.832;9.126;2023-05-14T01:20:49;6.57;;;5.90;;
19107;SDS011;9686;48.832;9.126;2023-05-14T01:23:16;6.37;;;5.77;;
19107;SDS011;9686;48.832;9.126;2023-05-14T01:25:41;6.57;;;5.97;;
19107;SDS011;9686;48.832;9.126;2023-05-14T01:28:16;6.60;;;6.00;;
19107;SDS011;9686;48.832;9.126;2023-05-14T01:33:32;6.57;;;5.77;;
19107;SDS011;9686;48.832;9.126;2023-05-14T01:35:59;6.90;;;6.00;;
19107;SDS011;9686;48.832;9.126;2023-05-14T01:38:25;7.03;;;6.33;;
19107;SDS011;9686;48.832;9.126;2023-05-14T01:40:54;6.53;;;5.73;;
19107;SDS011;9686;48.832;9.126;2023-05-14T01:43:21;7.07;;;6.27;;
19107;SDS011;9686;48.832;9.126;2023-05-14T01:45:46;7.03;;;6.33;;
19107;SDS011;9686;48.832;9.126;2023-05-14T01:48:12;7.23;;;6.53;;
19107;SDS011;9686;48.832;9.126;2023-05-14T01:50:37;7.73;;;6.70;;
19107;SDS011;9686;48.832;9.126;2023-05-14T01:53:03;6.77;;;6.07;;
19107;SDS011;9686;48.832;9.126;2023-05-14T01:55:28;6.97;;;6.37;;
19107;SDS011;9686;48.832;9.126;2023-05-14T01:57:53;7.20;;;6.50;;
19107;SDS011;9686;48.832;9.126;2023-05-14T02:00:19;6.53;;;5.93;;
19107;SDS011;9686;48.832;9.126;2023-05-14T02:02:45;7.30;;;6.60;;
19107;SDS011;9686;48.832;9.126;2023-05-14T02:05:11;7.07;;;6.33;;
19107;SDS011;9686;48.832;9.126;2023-05-14T02:07:37;9.63;;;6.60;;
19107;SDS011;9686;48.832;9.126;2023-05-14T02:10:03;7.17;;;6.40;;
19107;SDS011;9686;48.832;9.126;2023-05-14T02:12:29;7.10;;;6.40;;
19107;SDS011;9686;48.832;9.126;2023-05-14T02:14:54;6.20;;;5.60;;
19107;SDS011;9686;48.832;9.126;2023-05-14T02:17:20;6.30;;;5.70;;
19107;SDS011;9686;48.832;9.126;2023-05-14T02:19:45;6.20;;;5.60;;
19107;SDS011;9686;48.832;9.126;2023-05-14T02:22:11;7.07;;;6.30;;
19107;SDS011;9686;48.832;9.126;2023-05-14T02:24:37;6.80;;;6.07;;
19107;SDS011;9686;48.832;9.126;2023-05-14T02:27:02;6.07;;;5.47;;
19107;SDS011;9686;48.832;9.126;2023-05-14T02:29:28;6.67;;;6.07;;
19107;SDS011;9686;48.832;9.126;2023-05-14T02:31:53;6.73;;;6.07;;
19107;SDS011;9686;48.832;9.126;2023-05-14T02:34:19;6.53;;;5.77;;
19107;SDS011;9686;48.832;9.126;2023-05-14T02:36:45;7.70;;;6.10;;
19107;SDS011;9686;48.832;9.126;2023-05-14T02:39:10;7.23;;;5.90;;
19107;SDS011;9686;48.832;9.126;2023-05-14T02:41:35;6.97;;;6.00;;
19107;SDS011;9686;48.832;9.126;2023-05-14T02:44:01;6.80;;;6.20;;
19107;SDS011;9686;48.832;9.126;2023-05-14T02:46:26;6.70;;;6.00;;
19107;SDS011;9686;48.832;9.126;2023-05-14T02:48:51;6.67;;;5.77;;
19107;SDS011;9686;48.832;9.126;2023-05-14T02:51:18;6.70;;;6.00;;
19107;SDS011;9686;48.832;9.126;2023-05-14T02:53:45;6.93;;;5.70;;
19107;SDS011;9686;48.832;9.126;2023-05-14T02:56:10;8.27;;;6.33;;
19107;SDS011;9686;48.832;9.126;2023-05-14T02:58:35;6.93;;;6.10;;
19107;SDS011;9686;48.832;9.126;2023-05-14T03:01:01;6.30;;;5.70;;
19107;SDS011;9686;48.832;9.126;2023-05-14T03:03:27;7.07;;;6.37;;
19107;SDS011;9686;48.832;9.126;2023-05-14T03:05:53;6.80;;;6.10;;
19107;SDS011;9686;48.832;9.126;2023-05-14T03:08:19;9.47;;;6.40;;
19107;SDS011;9686;48.832;9.126;2023-05-14T03:10:44;7.10;;;6.40;;
19107;SDS011;9686;48.832;9.126;2023-05-14T03:13:09;6.97;;;6.27;;
19107;SDS011;9686;48.832;9.126;2023-05-14T03:15:35;6.43;;;5.83;;
19107;SDS011;9686;48.832;9.126;2023-05-14T03:18:00;7.17;;;6.37;;
19107;SDS011;9686;48.832;9.126;2023-05-14T03:20:25;7.97;;;6.33;;
19107;SDS011;9686;48.832;9.126;2023-05-14T03:22:51;6.47;;;5.80;;
19107;SDS011;9686;48.832;9.126;2023-05-14T03:25:16;7.13;;;6.43;;
19107;SDS011;9686;48.832;9.126;2023-05-14T03:27:41;6.93;;;6.20;;
19107;SDS011;9686;48.832;9.126;2023-05-14T03:30:07;7.20;;;6.23;;
19107;SDS011;9686;48.832;9.126;2023-05-14T03:32:32;6.20;;;5.60;;
19107;SDS011;9686;48.832;9.126;2023-05-14T03:34:58;6.50;;;5.77;;
19107;SDS011;9686;48.832;9.126;2023-05-14T03:37:23;6.20;;;5.60;;
19107;SDS011;9686;48.832;9.126;2023-05-14T03:39:48;6.93;;;5.93;;
19107;SDS011;9686;48.832;9.126;2023-05-14T03:42:13;6.83;;;6.00;;
19107;SDS011;9686;48.832;9.126;2023-05-14T03:44:39;6.83;;;6.13;;
19107;SDS011;9686;48.832;9.126;2023-05-14T03:47:04;6.80;;;5.83;;
19107;SDS011;9686;48.832;9.126;2023-05-14T03:49:30;7.17;;;5.97;;
19107;SDS011;9686;48.832;9.126;2023-05-14T03:51:55;7.63;;;6.70;;
19107;SDS011;9686;48.832;9.126;2023-05-14T03:54:22;6.77;;;5.73;;
19107;SDS011;9686;48.832;9.126;2023-05-14T03:56:47;6.57;;;5.70;;
19107;SDS011;9686;48.832;9.126;2023-05-14T03:59:12;7.03;;;5.77;;
19107;SDS011;9686;48.832;9.126;2023-05-14T04:01:37;6.40;;;5.80;;
19107;SDS011;9686;48.832;9.126;2023-05-14T04:04:03;6.93;;;6.23;;
19107;SDS011;9686;48.832;9.126;2023-05-14T04:06:28;7.30;;;6.60;;
19107;SDS011;9686;48.832;9.126;2023-05-14T04:08:53;6.60;;;5.97;;
19107;SDS011;9686;48.832;9.126;2023-05-14T04:11:19;6.57;;;5.90;;
19107;SDS011;9686;48.832;9.126;2023-05-14T04:13:45;6.33;;;5.73;;
19107;SDS011;9686;48.832;9.126;2023-05-14T04:16:10;6.23;;;5.63;;
19107;SDS011;9686;48.832;9.126;2023-05-14T04:18:35;7.60;;;5.83;;
19107;SDS011;9686;48.832;9.126;2023-05-14T04:21:01;6.00;;;5.33;;
19107;SDS011;9686;48.832;9.126;2023-05-14T04:23:27;5.57;;;5.03;;
19107;SDS011;9686;48.832;9.126;2023-05-14T04:25:52;5.83;;;5.23;;
19107;SDS011;9686;48.832;9.126;2023-05-14T04:28:17;6.93;;;6.23;;
19107;SDS011;9686;48.832;9.126;2023-05-14T04:30:43;6.77;;;6.10;;
19107;SDS011;9686;48.832;9.126;2023-05-14T04:33:09;5.97;;;5.23;;
19107;SDS011;9686;48.832;9.126;2023-05-14T04:35:34;6.87;;;5.07;;
19107;SDS011;9686;48.832;9.126;2023-05-14T04:38:00;5.57;;;5.07;;
19107;SDS011;9686;48.832;9.126;2023-05-14T04:40:25;6.27;;;5.27;;
19107;SDS011;9686;48.832;9.126;2023-05-14T04:42:50;6.23;;;5.40;;
19107;SDS011;9686;48.832;9.126;2023-05-14T04:45:16;6.17;;;5.57;;
19107;SDS011;9686;48.832;9.126;2023-05-14T04:47:41;6.60;;;5.87;;
19107;SDS011;9686;48.832;9.126;2023-05-14T04:50:07;5.47;;;4.97;;
19107;SDS011;9686;48.832;9.126;2023-05-14T04:52:33;8.13;;;5.13;;
19107;SDS011;9686;48.832;9.126;2023-05-14T04:54:59;5.63;;;5.10;;
19107;SDS011;9686;48.832;9.126;2023-05-14T04:57:25;5.70;;;5.13;;
19107;SDS011;9686;48.832;9.126;2023-05-14T04:59:50;5.30;;;4.80;;
19107;SDS011;9686;48.832;9.126;2023-05-14T05:02:15;7.20;;;5.03;;
19107;SDS011;9686;48.832;9.126;2023-05-14T05:04:41;5.27;;;4.77;;
19107;SDS011;9686;48.832;9.126;2023-05-14T05:07:06;6.07;;;5.17;;
19107;SDS011;9686;48.832;9.126;2023-05-14T05:09:31;5.47;;;4.93;;
19107;SDS011;9686;48.832;9.126;2023-05-14T05:11:57;6.40;;;5.40;;
19107;SDS011;9686;48.832;9.126;2023-05-14T05:14:22;5.33;;;4.83;;
19107;SDS011;9686;48.832;9.126;2023-05-14T05:16:47;6.17;;;5.07;;
19107;SDS011;9686;48.832;9.126;2023-05-14T05:19:12;6.87;;;5.37;;
19107;SDS011;9686;48.832;9.126;2023-05-14T05:21:38;7.20;;;4.80;;
19107;SDS011;9686;48.832;9.126;2023-05-14T05:24:04;5.33;;;4.83;;
19107;SDS011;9686;48.832;9.126;2023-05-14T05:26:31;5.87;;;5.03;;
19107;SDS011;9686;48.832;9.126;2023-05-14T05:28:56;4.73;;;4.30;;
19107;SDS011;9686;48.832;9.126;2023-05-14T05:31:21;6.43;;;5.30;;
19107;SDS011;9686;48.832;9.126;2023-05-14T05:33:47;6.33;;;5.57;;
19107;SDS011;9686;48.832;9.126;2023-05-14T05:36:12;6.03;;;5.40;;
19107;SDS011;9686;48.832;9.126;2023-05-14T05:38:37;5.83;;;5.27;;
19107;SDS011;9686;48.832;9.126;2023-05-14T05:41:03;6.77;;;4.47;;
19107;SDS011;9686;48.832;9.126;2023-05-14T05:43:28;6.00;;;5.17;;
19107;SDS011;9686;48.832;9.126;2023-05-14T05:45:53;5.70;;;5.10;;
19107;SDS011;9686;48.832;9.126;2023-05-14T05:48:18;5.53;;;5.00;;
19107;SDS011;9686;48.832;9.126;2023-05-14T05:50:45;6.07;;;5.47;;
19107;SDS011;9686;48.832;9.126;2023-05-14T05:53:13;5.97;;;5.07;;
19107;SDS011;9686;48.832;9.126;2023-05-14T05:55:40;5.67;;;5.00;;
19107;SDS011;9686;48.832;9.126;2023-05-14T05:58:06;5.87;;;5.23;;
19107;SDS011;9686;48.832;9.126;2023-05-14T06:00:31;5.40;;;4.90;;
19107;SDS011;9686;48.832;9.126;2023-05-14T06:02:56;5.90;;;5.23;;
19107;SDS011;9686;48.832;9.126;2023-05-14T06:05:21;5.40;;;4.90;;
19107;SDS011;9686;48.832;9.126;2023-05-14T06:07:47;5.97;;;5.37;;
19107;SDS011;9686;48.832;9.126;2023-05-14T06:10:12;5.23;;;4.73;;
19107;SDS011;9686;48.832;9.126;2023-05-14T06:12:38;5.83;;;5.23;;
19107;SDS011;9686;48.832;9.126;2023-05-14T06:15:04;5.20;;;4.70;;
19107;SDS011;9686;48.832;9.126;2023-05-14T06:17:30;6.47;;;5.30;;
19107;SDS011;9686;48.832;9.126;2023-05-14T06:19:55;7.93;;;4.77;;
19107;SDS011;9686;48.832;9.126;2023-05-14T06:22:21;6.93;;;4.90;;
19107;SDS011;9686;48.832;9.126;2023-05-14T06:24:46;6.17;;;5.23;;
19107;SDS011;9686;48.832;9.126;2023-05-14T06:27:12;5.17;;;4.67;;
19107;SDS011;9686;48.832;9.126;2023-05-14T06:29:37;5.67;;;5.07;;
19107;SDS011;9686;48.832;9.126;2023-05-14T06:32:03;5.60;;;5.03;;
19107;SDS011;9686;48.832;9.126;2023-05-14T06:34:29;5.43;;;4.93;;
19107;SDS011;9686;48.832;9.126;2023-05-14T06:36:55;5.67;;;4.93;;
19107;SDS011;9686;48.832;9.126;2023-05-14T06:39:21;6.60;;;5.40;;
19107;SDS011;9686;48.832;9.126;2023-05-14T06:41:46;7.30;;;5.53;;
19107;SDS011;9686;48.832;9.126;2023-05-14T06:44:11;5.83;;;5.23;;
19107;SDS011;9686;48.832;9.126;2023-05-14T06:46:37;5.73;;;5.10;;
19107;SDS011;9686;48.832;9.126;2023-05-14T06:49:02;6.30;;;5.20;;
19107;SDS011;9686;48.832;9.126;2023-05-14T06:51:28;6.93;;;5.50;;
19107;SDS011;9686;48.832;9.126;2023-05-14T06:53:53;6.33;;;5.20;;
19107;SDS011;9686;48.832;9.126;2023-05-14T06:56:19;6.80;;;5.20;;
19107;SDS011;9686;48.832;9.126;2023-05-14T06:58:45;6.67;;;5.40;;
19107;SDS011;9686;48.832;9.126;2023-05-14T07:01:11;6.07;;;5.00;;
19107;SDS011;9686;48.832;9.126;2023-05-14T07:03:36;7.33;;;5.47;;
19107;SDS011;9686;48.832;9.126;2023-05-14T07:06:02;6.77;;;5.57;;
19107;SDS011;9686;48.832;9.126;2023-05-14T07:08:27;5.97;;;5.20;;
19107;SDS011;9686;48.832;9.126;2023-05-14T07:10:52;7.13;;;5.60;;
19107;SDS011;9686;48.832;9.126;2023-05-14T07:13:18;6.70;;;5.43;;
19107;SDS011;9686;48.832;9.126;2023-05-14T07:15:43;6.57;;;5.87;;
19107;SDS011;9686;48.832;9.126;2023-05-14T07:18:08;6.37;;;5.73;;
19107;SDS011;9686;48.832;9.126;2023-05-14T07:20:34;6.10;;;5.50;;
19107;SDS011;9686;48.832;9.126;2023-05-14T07:22:59;7.33;;;5.50;;
19107;SDS011;9686;48.832;9.126;2023-05-14T07:25:24;7.90;;;5.87;;
19107;SDS011;9686;48.832;9.126;2023-05-14T07:27:50;6.20;;;5.47;;
19107;SDS011;9686;48.832;9.126;2023-05-14T07:30:15;7.13;;;5.77;;
19107;SDS011;9686;48.832;9.126;2023-05-14T07:32:40;6.63;;;5.93;;
19107;SDS011;9686;48.832;9.126;2023-05-14T07:35:06;6.60;;;5.27;;
19107;SDS011;9686;48.832;9.126;2023-05-14T07:37:31;7.20;;;5.43;;
19107;SDS011;9686;48.832;9.126;2023-05-14T07:39:56;6.73;;;6.03;;
19107;SDS011;9686;48.832;9.126;2023-05-14T07:42:22;7.77;;;5.50;;
19107;SDS011;9686;48.832;9.126;2023-05-14T07:44:47;6.03;;;5.43;;
19107;SDS011;9686;48.832;9.126;2023-05-14T07:47:12;8.40;;;6.03;;
19107;SDS011;9686;48.832;9.126;2023-05-14T07:49:38;6.23;;;5.63;;
19107;SDS011;9686;48.832;9.126;2023-05-14T07:52:03;6.80;;;6.13;;
19107;SDS011;9686;48.832;9.126;2023-05-14T07:54:28;6.10;;;5.50;;
19107;SDS011;9686;48.832;9.126;2023-05-14T07:56:54;6.83;;;6.13;;
19107;SDS011;9686;48.832;9.126;2023-05-14T07:59:19;7.57;;;5.77;;
19107;SDS011;9686;48.832;9.126;2023-05-14T08:01:45;6.87;;;6.17;;
19107;SDS011;9686;48.832;9.126;2023-05-14T08:04:10;7.00;;;6.07;;
19107;SDS011;9686;48.832;9.126;2023-05-14T08:06:36;7.00;;;6.03;;
19107;SDS011;9686;48.832;9.126;2023-05-14T08:09:01;6.53;;;5.50;;
19107;SDS011;9686;48.832;9.126;2023-05-14T08:11:29;7.20;;;6.10;;
19107;SDS011;9686;48.832;9.126;2023-05-14T08:13:54;8.90;;;6.60;;
19107;SDS011;9686;48.832;9.126;2023-05-14T08:16:20;6.83;;;6.13;;
19107;SDS011;9686;48.832;9.126;2023-05-14T08:18:45;6.53;;;5.90;;
19107;SDS011;9686;48.832;9.126;2023-05-14T08:21:11;7.17;;;6.40;;
19107;SDS011;9686;48.832;9.126;2023-05-14T08:23:36;7.60;;;6.67;;
19107;SDS011;9686;48.832;9.126;2023-05-14T08:26:01;7.70;;;6.90;;
19107;SDS011;9686;48.832;9.126;2023-05-14T08:28:27;7.67;;;6.87;;
19107;SDS011;9686;48.832;9.126;2023-05-14T08:30:52;7.70;;;6.87;;
19107;SDS011;9686;48.832;9.126;2023-05-14T08:33:17;7.50;;;6.13;;
19107;SDS011;9686;48.832;9.126;2023-05-14T08:35:43;7.10;;;6.40;;
19107;SDS011;9686;48.832;9.126;2023-05-14T08:38:08;6.83;;;6.13;;
19107;SDS011;9686;48.832;9.126;2023-05-14T08:40:33;7.13;;;6.00;;
19107;SDS011;9686;48.832;9.126;2023-05-14T08:42:59;7.43;;;6.60;;
19107;SDS011;9686;48.832;9.126;2023-05-14T08:45:27;7.33;;;6.60;;
19107;SDS011;9686;48.832;9.126;2023-05-14T08:47:57;7.73;;;6.90;;
19107;SDS011;9686;48.832;9.126;2023-05-14T08:50:23;8.37;;;7.00;;
19107;SDS011;9686;48.832;9.126;2023-05-14T08:52:49;7.93;;;6.20;;
19107;SDS011;9686;48.832;9.126;2023-05-14T08:55:15;7.80;;;7.00;;
19107;SDS011;9686;48.832;9.126;2023-05-14T08:57:41;7.17;;;6.47;;
19107;SDS011;9686;48.832;9.126;2023-05-14T09:00:06;7.40;;;6.57;;
19107;SDS011;9686;48.832;9.126;2023-05-14T09:02:32;7.37;;;6.30;;
19107;SDS011;9686;48.832;9.126;2023-05-14T09:04:59;7.47;;;6.77;;
19107;SDS011;9686;48.832;9.126;2023-05-14T09:07:25;7.70;;;6.90;;
19107;SDS011;9686;48.832;9.126;2023-05-14T09:09:51;8.00;;;6.53;;
19107;SDS011;9686;48.832;9.126;2023-05-14T09:12:18;8.30;;;7.07;;
19107;SDS011;9686;48.832;9.126;2023-05-14T09:14:43;7.80;;;6.53;;
19107;SDS011;9686;48.832;9.126;2023-05-14T09:17:09;9.57;;;7.67;;
19107;SDS011;9686;48.832;9.126;2023-05-14T09:19:39;7.87;;;6.90;;
19107;SDS011;9686;48.832;9.126;2023-05-14T09:22:10;7.20;;;6.50;;
19107;SDS011;9686;48.832;9.126;2023-05-14T09:24:36;7.33;;;6.63;;
19107;SDS011;9686;48.832;9.126;2023-05-14T09:27:06;7.43;;;6.53;;
19107;SDS011;9686;48.832;9.126;2023-05-14T09:29:32;7.07;;;6.37;;
19107;SDS011;9686;48.832;9.126;2023-05-14T09:31:57;6.87;;;6.17;;
19107;SDS011;9686;48.832;9.126;2023-05-14T09:34:25;7.47;;;6.73;;
19107;SDS011;9686;48.832;9.126;2023-05-14T09:36:55;7.00;;;6.30;;
19107;SDS011;9686;48.832;9.126;2023-05-14T09:39:25;7.30;;;6.27;;
19107;SDS011;9686;48.832;9.126;2023-05-14T09:41:51;8.80;;;7.33;;
19107;SDS011;9686;48.832;9.126;2023-05-14T09:44:17;7.60;;;6.67;;
19107;SDS011;9686;48.832;9.126;2023-05-14T09:46:46;7.63;;;6.83;;
19107;SDS011;9686;48.832;9.126;2023-05-14T09:49:12;8.37;;;7.57;;
19107;SDS011;9686;48.832;9.126;2023-05-14T09:51:38;8.10;;;7.20;;
19107;SDS011;9686;48.832;9.126;2023-05-14T09:54:03;7.73;;;6.93;;
19107;SDS011;9686;48.832;9.126;2023-05-14T09:56:30;7.63;;;6.77;;
19107;SDS011;9686;48.832;9.126;2023-05-14T09:58:56;7.43;;;6.53;;
19107;SDS011;9686;48.832;9.126;2023-05-14T10:01:22;7.93;;;6.83;;
19107;SDS011;9686;48.832;9.126;2023-05-14T10:03:48;7.33;;;6.63;;
19107;SDS011;9686;48.832;9.126;2023-05-14T10:06:15;7.43;;;6.33;;
19107;SDS011;9686;48.832;9.126;2023-05-14T10:08:45;7.13;;;5.97;;
19107;SDS011;9686;48.832;9.126;2023-05-14T10:11:14;7.07;;;6.23;;
19107;SDS011;9686;48.832;9.126;2023-05-14T10:13:52;6.27;;;5.67;;
19107;SDS011;9686;48.832;9.126;2023-05-14T10:16:56;6.93;;;6.23;;
19107;SDS011;9686;48.832;9.126;2023-05-14T10:19:23;6.53;;;5.83;;
19107;SDS011;9686;48.832;9.126;2023-05-14T10:21:58;7.50;;;5.70;;
19107;SDS011;9686;48.832;9.126;2023-05-14T10:24:32;7.07;;;5.80;;
19107;SDS011;9686;48.832;9.126;2023-05-14T10:26:58;6.37;;;5.70;;
19107;SDS011;9686;48.832;9.126;2023-05-14T10:29:31;6.20;;;5.60;;
19107;SDS011;9686;48.832;9.126;2023-05-14T10:31:58;9.17;;;5.80;;
19107;SDS011;9686;48.832;9.126;2023-05-14T10:37:02;5.67;;;5.17;;
19107;SDS011;9686;48.832;9.126;2023-05-14T10:40:20;5.20;;;4.67;;
19107;SDS011;9686;48.832;9.126;2023-05-14T10:42:34;6.23;;;5.63;;
19107;SDS011;9686;48.832;9.126;2023-05-14T10:45:07;7.93;;;5.93;;
19107;SDS011;9686;48.832;9.126;2023-05-14T10:47:37;6.10;;;5.50;;
19107;SDS011;9686;48.832;9.126;2023-05-14T10:50:05;6.57;;;5.87;;
19107;SDS011;9686;48.832;9.126;2023-05-14T10:52:32;6.03;;;5.47;;
19107;SDS011;9686;48.832;9.126;2023-05-14T10:54:59;6.70;;;5.97;;
19107;SDS011;9686;48.832;9.126;2023-05-14T10:57:30;6.77;;;5.63;;
19107;SDS011;9686;48.832;9.126;2023-05-14T10:59:57;6.00;;;5.40;;
19107;SDS011;9686;48.832;9.126;2023-05-14T11:02:25;6.40;;;5.70;;
19107;SDS011;9686;48.832;9.126;2023-05-14T11:07:21;5.40;;;4.90;;
19107;SDS011;9686;48.832;9.126;2023-05-14T11:09:49;6.03;;;5.43;;
19107;SDS011;9686;48.832;9.126;2023-05-14T11:12:15;5.67;;;5.07;;
19107;SDS011;9686;48.832;9.126;2023-05-14T11:14:41;6.77;;;6.17;;
19107;SDS011;9686;48.832;9.126;2023-05-14T11:17:06;6.10;;;5.50;;
19107;SDS011;9686;48.832;9.126;2023-05-14T11:19:32;5.40;;;4.90;;
19107;SDS011;9686;48.832;9.126;2023-05-14T11:21:57;5.30;;;4.63;;
19107;SDS011;9686;48.832;9.126;2023-05-14T11:24:25;4.50;;;4.10;;
19107;SDS011;9686;48.832;9.126;2023-05-14T11:26:50;5.27;;;4.77;;
19107;SDS011;9686;48.832;9.126;2023-05-14T11:29:17;4.37;;;3.97;;
19107;SDS011;9686;48.832;9.126;2023-05-14T11:31:42;4.57;;;4.10;;
19107;SDS011;9686;48.832;9.126;2023-05-14T11:34:07;4.03;;;3.57;;
19107;SDS011;9686;48.832;9.126;2023-05-14T11:36:35;4.20;;;3.73;;
19107;SDS011;9686;48.832;9.126;2023-05-14T11:39:00;4.60;;;4.20;;
19107;SDS011;9686;48.832;9.126;2023-05-14T11:41:26;4.20;;;3.80;;
19107;SDS011;9686;48.832;9.126;2023-05-14T11:43:52;3.93;;;3.57;;
19107;SDS011;9686;48.832;9.126;2023-05-14T11:46:17;5.00;;;3.93;;
19107;SDS011;9686;48.832;9.126;2023-05-14T11:48:43;3.50;;;3.20;;
19107;SDS011;9686;48.832;9.126;2023-05-14T11:51:08;3.67;;;3.30;;
19107;SDS011;9686;48.832;9.126;2023-05-14T11:53:33;3.87;;;3.57;;
19107;SDS011;9686;48.832;9.126;2023-05-14T11:55:59;3.57;;;3.27;;
19107;SDS011;9686;48.832;9.126;2023-05-14T11:58:24;3.43;;;3.13;;
19107;SDS011;9686;48.832;9.126;2023-05-14T12:00:51;3.53;;;3.23;;
19107;SDS011;9686;48.832;9.126;2023-05-14T12:03:17;3.70;;;3.37;;
19107;SDS011;9686;48.832;9.126;2023-05-14T12:05:58;3.20;;;2.90;;
19107;SDS011;9686;48.832;9.126;2023-05-14T12:08:29;3.50;;;3.20;;
19107;SDS011;9686;48.832;9.126;2023-05-14T12:10:57;4.40;;;3.30;;
19107;SDS011;9686;48.832;9.126;2023-05-14T12:13:25;3.70;;;3.40;;
19107;SDS011;9686;48.832;9.126;2023-05-14T12:15:55;4.33;;;3.93;;
19107;SDS011;9686;48.832;9.126;2023-05-14T12:18:24;4.13;;;3.73;;
19107;SDS011;9686;48.832;9.126;2023-05-14T12:20:51;3.80;;;3.50;;
19107;SDS011;9686;48.832;9.126;2023-05-14T12:23:26;3.93;;;3.53;;
19107;SDS011;9686;48.832;9.126;2023-05-14T12:25:52;3.47;;;3.17;;
19107;SDS011;9686;48.832;9.126;2023-05-14T12:28:18;4.37;;;3.97;;
19107;SDS011;9686;48.832;9.126;2023-05-14T12:30:44;4.73;;;3.57;;
19107;SDS011;9686;48.832;9.126;2023-05-14T12:33:11;4.87;;;3.67;;
19107;SDS011;9686;48.832;9.126;2023-05-14T12:35:37;3.10;;;2.90;;
19107;SDS011;9686;48.832;9.126;2023-05-14T12:38:02;3.43;;;3.10;;
19107;SDS011;9686;48.832;9.126;2023-05-14T12:40:28;3.47;;;3.17;;
19107;SDS011;9686;48.832;9.126;2023-05-14T12:42:53;3.37;;;2.90;;
19107;SDS011;9686;48.832;9.126;2023-05-14T12:45:18;3.73;;;3.10;;
19107;SDS011;9686;48.832;9.126;2023-05-14T12:47:44;4.00;;;3.60;;
19107;SDS011;9686;48.832;9.126;2023-05-14T12:50:09;4.23;;;3.83;;
19107;SDS011;9686;48.832;9.126;2023-05-14T12:52:35;3.57;;;3.27;;
19107;SDS011;9686;48.832;9.126;2023-05-14T12:55:01;3.47;;;3.17;;
19107;SDS011;9686;48.832;9.126;2023-05-14T12:57:26;4.13;;;3.43;;
19107;SDS011;9686;48.832;9.126;2023-05-14T12:59:52;4.13;;;3.50;;
19107;SDS011;9686;48.832;9.126;2023-05-14T13:02:17;4.27;;;3.57;;
19107;SDS011;9686;48.832;9.126;2023-05-14T13:04:43;3.93;;;3.60;;
19107;SDS011;9686;48.832;9.126;2023-05-14T13:07:09;3.60;;;3.30;;
19107;SDS011;9686;48.832;9.126;2023-05-14T13:09:34;3.30;;;3.00;;
19107;SDS011;9686;48.832;9.126;2023-05-14T13:12:00;3.43;;;3.13;;
19107;SDS011;9686;48.832;9.126;2023-05-14T13:14:25;3.20;;;2.90;;
19107;SDS011;9686;48.832;9.126;2023-05-14T13:16:50;4.30;;;3.50;;
19107;SDS011;9686;48.832;9.126;2023-05-14T13:19:15;3.20;;;2.90;;
19107;SDS011;9686;48.832;9.126;2023-05-14T13:21:41;3.23;;;2.80;;
19107;SDS011;9686;48.832;9.126;2023-05-14T13:24:06;2.83;;;2.63;;
19107;SDS011;9686;48.832;9.126;2023-05-14T13:26:33;3.07;;;2.83;;
19107;SDS011;9686;48.832;9.126;2023-05-14T13:29:00;3.20;;;3.00;;
19107;SDS011;9686;48.832;9.126;2023-05-14T13:31:26;4.23;;;2.93;;
19107;SDS011;9686;48.832;9.126;2023-05-14T13:33:51;2.60;;;2.40;;
19107;SDS011;9686;48.832;9.126;2023-05-14T13:36:17;2.73;;;2.53;;
19107;SDS011;9686;48.832;9.126;2023-05-14T13:38:42;3.40;;;2.70;;
19107;SDS011;9686;48.832;9.126;2023-05-14T13:41:09;3.10;;;2.80;;
19107;SDS011;9686;48.832;9.126;2023-05-14T13:43:35;2.97;;;2.77;;
19107;SDS011;9686;48.832;9.126;2023-05-14T13:46:01;3.30;;;3.00;;
19107;SDS011;9686;48.832;9.126;2023-05-14T13:48:28;2.77;;;2.40;;
19107;SDS011;9686;48.832;9.126;2023-05-14T13:50:54;2.70;;;2.50;;
19107;SDS011;9686;48.832;9.126;2023-05-14T13:53:21;2.47;;;2.27;;
19107;SDS011;9686;48.832;9.126;2023-05-14T13:55:48;3.00;;;2.60;;
19107;SDS011;9686;48.832;9.126;2023-05-14T13:58:14;3.20;;;2.77;;
19107;SDS011;9686;48.832;9.126;2023-05-14T14:00:40;2.50;;;2.23;;
19107;SDS011;9686;48.832;9.126;2023-05-14T14:03:05;2.70;;;2.50;;
19107;SDS011;9686;48.832;9.126;2023-05-14T14:05:31;2.30;;;2.10;;
19107;SDS011;9686;48.832;9.126;2023-05-14T14:07:56;2.27;;;2.07;;
19107;SDS011;9686;48.832;9.126;2023-05-14T14:10:22;2.40;;;2.20;;
19107;SDS011;9686;48.832;9.126;2023-05-14T14:12:47;2.50;;;2.30;;
19107;SDS011;9686;48.832;9.126;2023-05-14T14:15:13;2.77;;;2.50;;
19107;SDS011;9686;48.832;9.126;2023-05-14T14:17:39;2.70;;;2.50;;
19107;SDS011;9686;48.832;9.126;2023-05-14T14:20:07;2.70;;;2.50;;
19107;SDS011;9686;48.832;9.126;2023-05-14T14:22:33;3.03;;;2.73;;
19107;SDS011;9686;48.832;9.126;2023-05-14T14:24:59;3.40;;;3.10;;
19107;SDS011;9686;48.832;9.126;2023-05-14T14:27:24;2.50;;;2.20;;
19107;SDS011;9686;48.832;9.126;2023-05-14T14:29:50;2.60;;;2.40;;
19107;SDS011;9686;48.832;9.126;2023-05-14T14:32:15;3.07;;;2.63;;
19107;SDS011;9686;48.832;9.126;2023-05-14T14:34:40;2.93;;;2.73;;
19107;SDS011;9686;48.832;9.126;2023-05-14T14:37:06;3.73;;;3.20;;
19107;SDS011;9686;48.832;9.126;2023-05-14T14:39:31;3.30;;;2.27;;
19107;SDS011;9686;48.832;9.126;2023-05-14T14:41:56;2.90;;;2.30;;
19107;SDS011;9686;48.832;9.126;2023-05-14T14:44:21;2.40;;;2.20;;
19107;SDS011;9686;48.832;9.126;2023-05-14T14:46:47;2.40;;;2.20;;
19107;SDS011;9686;48.832;9.126;2023-05-14T14:49:12;2.57;;;2.37;;
19107;SDS011;9686;48.832;9.126;2023-05-14T14:51:37;2.17;;;1.97;;
19107;SDS011;9686;48.832;9.126;2023-05-14T14:54:03;2.10;;;1.90;;
19107;SDS011;9686;48.832;9.126;2023-05-14T14:56:31;2.77;;;2.57;;
19107;SDS011;9686;48.832;9.126;2023-05-14T14:58:57;3.07;;;2.23;;
19107;SDS011;9686;48.832;9.126;2023-05-14T15:01:22;2.40;;;2.20;;
19107;SDS011;9686;48.832;9.126;2023-05-14T15:03:47;2.20;;;2.00;;
19107;SDS011;9686;48.832;9.126;2023-05-14T15:06:13;2.20;;;2.00;;
19107;SDS011;9686;48.832;9.126;2023-05-14T15:08:38;2.20;;;2.00;;